Dungeness, Washington
Current Conditions -  °F | °C
As of 11:53 PM on Saturday 25 Oct 2014 (Local Time) from KCLM Reporting Station
Broken Clouds Broken Clouds  
Wind Chill: 50°   Ceiling: 9000
Heat Index: 50°   Visibility: 10mi
Dew Point: 45°   Wind: 5mph
Humidity: 83%   Direction: 210°SSW
Pressure: 29.69"   Gusts: NA
Location:  48.0015°N, 123.09°W
Report Text: KCLM 260653Z AUTO 21004KT 10SM FEW060 BKN090 BKN100 10/07 A2969 RMK AO2 RAB0559E36 PRESRR SLP054 P0002 T01000072 TSNO $
Loading
Personal Weather Stations






























Interactive Weather Map
Tropical Storm Tracking
New forecast layout! Learn more

10-Day Weather Forecast

Advertisements
Track Severe Weather on mobile